sensor_id;sensor_type;location;lat;lon;timestamp;P1;durP1;ratioP1;P2;durP2;ratioP2
6723;SDS011;3399;52.530;13.304;2023-02-17T00:01:13;28.10;;;21.27;;
6723;SDS011;3399;52.530;13.304;2023-02-17T00:03:41;27.23;;;20.90;;
6723;SDS011;3399;52.530;13.304;2023-02-17T00:06:10;31.57;;;20.50;;
6723;SDS011;3399;52.530;13.304;2023-02-17T00:08:35;27.53;;;20.90;;
6723;SDS011;3399;52.530;13.304;2023-02-17T00:11:01;27.83;;;21.83;;
6723;SDS011;3399;52.530;13.304;2023-02-17T00:13:27;28.10;;;20.50;;
6723;SDS011;3399;52.530;13.304;2023-02-17T00:15:53;28.10;;;21.00;;
6723;SDS011;3399;52.530;13.304;2023-02-17T00:18:19;26.57;;;21.00;;
6723;SDS011;3399;52.530;13.304;2023-02-17T00:20:45;32.43;;;22.60;;
6723;SDS011;3399;52.530;13.304;2023-02-17T00:23:10;28.30;;;21.23;;
6723;SDS011;3399;52.530;13.304;2023-02-17T00:25:36;31.33;;;21.67;;
6723;SDS011;3399;52.530;13.304;2023-02-17T00:28:02;30.23;;;23.57;;
6723;SDS011;3399;52.530;13.304;2023-02-17T00:30:28;30.87;;;22.20;;
6723;SDS011;3399;52.530;13.304;2023-02-17T00:32:53;31.40;;;21.80;;
6723;SDS011;3399;52.530;13.304;2023-02-17T00:35:19;27.97;;;21.23;;
6723;SDS011;3399;52.530;13.304;2023-02-17T00:37:44;27.90;;;22.07;;
6723;SDS011;3399;52.530;13.304;2023-02-17T00:40:11;33.10;;;23.10;;
6723;SDS011;3399;52.530;13.304;2023-02-17T00:42:37;30.67;;;21.63;;
6723;SDS011;3399;52.530;13.304;2023-02-17T00:45:03;30.43;;;21.40;;
6723;SDS011;3399;52.530;13.304;2023-02-17T00:47:29;30.30;;;22.70;;
6723;SDS011;3399;52.530;13.304;2023-02-17T00:49:54;30.73;;;22.40;;
6723;SDS011;3399;52.530;13.304;2023-02-17T00:52:21;31.67;;;22.20;;
6723;SDS011;3399;52.530;13.304;2023-02-17T00:54:46;27.87;;;21.33;;
6723;SDS011;3399;52.530;13.304;2023-02-17T00:57:17;27.47;;;22.70;;
6723;SDS011;3399;52.530;13.304;2023-02-17T00:59:50;28.97;;;21.90;;
6723;SDS011;3399;52.530;13.304;2023-02-17T01:02:15;32.37;;;21.93;;
6723;SDS011;3399;52.530;13.304;2023-02-17T01:04:41;33.60;;;23.67;;
6723;SDS011;3399;52.530;13.304;2023-02-17T01:07:06;29.13;;;21.17;;
6723;SDS011;3399;52.530;13.304;2023-02-17T01:09:32;30.00;;;20.97;;
6723;SDS011;3399;52.530;13.304;2023-02-17T01:11:57;29.47;;;21.53;;
6723;SDS011;3399;52.530;13.304;2023-02-17T01:14:23;30.70;;;23.67;;
6723;SDS011;3399;52.530;13.304;2023-02-17T01:16:48;32.67;;;22.70;;
6723;SDS011;3399;52.530;13.304;2023-02-17T01:19:16;28.80;;;21.90;;
6723;SDS011;3399;52.530;13.304;2023-02-17T01:21:42;31.17;;;22.83;;
6723;SDS011;3399;52.530;13.304;2023-02-17T01:24:09;34.33;;;25.33;;
6723;SDS011;3399;52.530;13.304;2023-02-17T01:26:35;30.10;;;22.63;;
6723;SDS011;3399;52.530;13.304;2023-02-17T01:29:02;31.50;;;22.47;;
6723;SDS011;3399;52.530;13.304;2023-02-17T01:31:28;34.90;;;24.00;;
6723;SDS011;3399;52.530;13.304;2023-02-17T01:33:58;34.03;;;22.73;;
6723;SDS011;3399;52.530;13.304;2023-02-17T01:36:25;30.57;;;23.90;;
6723;SDS011;3399;52.530;13.304;2023-02-17T01:38:51;30.20;;;23.13;;
6723;SDS011;3399;52.530;13.304;2023-02-17T01:41:17;29.67;;;21.87;;
6723;SDS011;3399;52.530;13.304;2023-02-17T01:46:33;32.40;;;22.40;;
6723;SDS011;3399;52.530;13.304;2023-02-17T01:48:59;31.67;;;22.93;;
6723;SDS011;3399;52.530;13.304;2023-02-17T01:51:30;31.53;;;23.20;;
6723;SDS011;3399;52.530;13.304;2023-02-17T01:54:08;31.37;;;23.83;;
6723;SDS011;3399;52.530;13.304;2023-02-17T01:56:39;36.47;;;23.03;;
6723;SDS011;3399;52.530;13.304;2023-02-17T01:59:10;34.03;;;24.17;;
6723;SDS011;3399;52.530;13.304;2023-02-17T02:01:40;31.37;;;24.00;;
6723;SDS011;3399;52.530;13.304;2023-02-17T02:04:06;27.97;;;20.43;;
6723;SDS011;3399;52.530;13.304;2023-02-17T02:06:33;34.10;;;23.97;;
6723;SDS011;3399;52.530;13.304;2023-02-17T02:09:04;34.30;;;22.90;;
6723;SDS011;3399;52.530;13.304;2023-02-17T02:11:33;32.80;;;24.00;;
6723;SDS011;3399;52.530;13.304;2023-02-17T02:13:59;33.83;;;23.03;;
6723;SDS011;3399;52.530;13.304;2023-02-17T02:16:35;30.43;;;21.70;;
6723;SDS011;3399;52.530;13.304;2023-02-17T02:22:30;34.37;;;24.03;;
6723;SDS011;3399;52.530;13.304;2023-02-17T02:25:37;37.47;;;24.13;;
6723;SDS011;3399;52.530;13.304;2023-02-17T02:31:16;33.17;;;24.77;;
6723;SDS011;3399;52.530;13.304;2023-02-17T02:34:10;32.67;;;24.43;;
6723;SDS011;3399;52.530;13.304;2023-02-17T02:36:52;34.33;;;26.40;;
6723;SDS011;3399;52.530;13.304;2023-02-17T02:39:25;34.80;;;24.93;;
6723;SDS011;3399;52.530;13.304;2023-02-17T02:41:57;31.97;;;25.90;;
6723;SDS011;3399;52.530;13.304;2023-02-17T02:44:25;33.93;;;25.17;;
6723;SDS011;3399;52.530;13.304;2023-02-17T02:47:00;37.33;;;26.33;;
6723;SDS011;3399;52.530;13.304;2023-02-17T02:49:29;37.80;;;26.53;;
6723;SDS011;3399;52.530;13.304;2023-02-17T02:52:03;35.00;;;24.43;;
6723;SDS011;3399;52.530;13.304;2023-02-17T02:57:43;33.57;;;24.97;;
6723;SDS011;3399;52.530;13.304;2023-02-17T03:00:44;37.87;;;25.70;;
6723;SDS011;3399;52.530;13.304;2023-02-17T03:03:24;38.83;;;26.20;;
6723;SDS011;3399;52.530;13.304;2023-02-17T03:08:46;39.07;;;26.97;;
6723;SDS011;3399;52.530;13.304;2023-02-17T03:11:16;41.97;;;28.40;;
6723;SDS011;3399;52.530;13.304;2023-02-17T03:13:58;39.53;;;28.03;;
6723;SDS011;3399;52.530;13.304;2023-02-17T03:16:28;37.90;;;25.30;;
6723;SDS011;3399;52.530;13.304;2023-02-17T03:18:54;39.57;;;28.83;;
6723;SDS011;3399;52.530;13.304;2023-02-17T03:21:19;37.97;;;27.43;;
6723;SDS011;3399;52.530;13.304;2023-02-17T03:23:45;36.80;;;27.10;;
6723;SDS011;3399;52.530;13.304;2023-02-17T03:26:10;36.93;;;26.00;;
6723;SDS011;3399;52.530;13.304;2023-02-17T03:28:36;37.43;;;28.10;;
6723;SDS011;3399;52.530;13.304;2023-02-17T03:31:02;42.37;;;29.93;;
6723;SDS011;3399;52.530;13.304;2023-02-17T03:33:27;45.60;;;29.17;;
6723;SDS011;3399;52.530;13.304;2023-02-17T03:35:53;41.50;;;29.93;;
6723;SDS011;3399;52.530;13.304;2023-02-17T03:38:18;46.43;;;31.40;;
6723;SDS011;3399;52.530;13.304;2023-02-17T03:40:44;43.80;;;30.67;;
6723;SDS011;3399;52.530;13.304;2023-02-17T03:43:09;47.00;;;31.47;;
6723;SDS011;3399;52.530;13.304;2023-02-17T03:45:35;47.90;;;30.17;;
6723;SDS011;3399;52.530;13.304;2023-02-17T03:48:01;49.00;;;32.73;;
6723;SDS011;3399;52.530;13.304;2023-02-17T03:50:27;40.57;;;29.17;;
6723;SDS011;3399;52.530;13.304;2023-02-17T03:52:53;42.87;;;30.30;;
6723;SDS011;3399;52.530;13.304;2023-02-17T03:55:18;41.33;;;30.27;;
6723;SDS011;3399;52.530;13.304;2023-02-17T03:57:44;43.60;;;31.13;;
6723;SDS011;3399;52.530;13.304;2023-02-17T04:00:09;41.90;;;32.40;;
6723;SDS011;3399;52.530;13.304;2023-02-17T04:02:35;40.57;;;28.40;;
6723;SDS011;3399;52.530;13.304;2023-02-17T04:05:01;42.93;;;30.70;;
6723;SDS011;3399;52.530;13.304;2023-02-17T04:07:26;37.27;;;28.20;;
6723;SDS011;3399;52.530;13.304;2023-02-17T04:09:52;43.23;;;30.20;;
6723;SDS011;3399;52.530;13.304;2023-02-17T04:12:17;43.60;;;28.90;;
6723;SDS011;3399;52.530;13.304;2023-02-17T04:14:43;40.90;;;29.53;;
6723;SDS011;3399;52.530;13.304;2023-02-17T04:17:08;38.40;;;28.50;;
6723;SDS011;3399;52.530;13.304;2023-02-17T04:19:34;42.90;;;28.70;;
6723;SDS011;3399;52.530;13.304;2023-02-17T04:21:59;36.37;;;26.70;;
6723;SDS011;3399;52.530;13.304;2023-02-17T04:24:25;40.60;;;27.87;;
6723;SDS011;3399;52.530;13.304;2023-02-17T04:26:51;41.87;;;28.87;;
6723;SDS011;3399;52.530;13.304;2023-02-17T04:29:16;42.80;;;29.60;;
6723;SDS011;3399;52.530;13.304;2023-02-17T04:31:42;44.30;;;30.43;;
6723;SDS011;3399;52.530;13.304;2023-02-17T04:34:07;36.63;;;28.03;;
6723;SDS011;3399;52.530;13.304;2023-02-17T04:36:33;37.77;;;27.90;;
6723;SDS011;3399;52.530;13.304;2023-02-17T04:38:58;35.60;;;26.20;;
6723;SDS011;3399;52.530;13.304;2023-02-17T04:41:24;43.60;;;28.80;;
6723;SDS011;3399;52.530;13.304;2023-02-17T04:43:49;47.10;;;30.70;;
6723;SDS011;3399;52.530;13.304;2023-02-17T04:46:15;38.30;;;27.23;;
6723;SDS011;3399;52.530;13.304;2023-02-17T04:48:40;33.20;;;25.53;;
6723;SDS011;3399;52.530;13.304;2023-02-17T04:51:06;37.30;;;27.63;;
6723;SDS011;3399;52.530;13.304;2023-02-17T04:53:31;40.00;;;29.20;;
6723;SDS011;3399;52.530;13.304;2023-02-17T04:55:57;32.37;;;25.50;;
6723;SDS011;3399;52.530;13.304;2023-02-17T04:58:22;36.80;;;27.00;;
6723;SDS011;3399;52.530;13.304;2023-02-17T05:00:48;39.87;;;28.77;;
6723;SDS011;3399;52.530;13.304;2023-02-17T05:03:15;39.53;;;28.50;;
6723;SDS011;3399;52.530;13.304;2023-02-17T05:05:41;34.43;;;26.00;;
6723;SDS011;3399;52.530;13.304;2023-02-17T05:08:07;40.87;;;29.90;;
6723;SDS011;3399;52.530;13.304;2023-02-17T05:10:32;37.13;;;25.97;;
6723;SDS011;3399;52.530;13.304;2023-02-17T05:12:58;43.67;;;29.50;;
6723;SDS011;3399;52.530;13.304;2023-02-17T05:15:23;45.27;;;30.10;;
6723;SDS011;3399;52.530;13.304;2023-02-17T05:17:49;38.87;;;27.40;;
6723;SDS011;3399;52.530;13.304;2023-02-17T05:20:14;39.57;;;28.43;;
6723;SDS011;3399;52.530;13.304;2023-02-17T05:22:40;43.47;;;28.83;;
6723;SDS011;3399;52.530;13.304;2023-02-17T05:25:05;38.17;;;27.53;;
6723;SDS011;3399;52.530;13.304;2023-02-17T05:27:31;42.23;;;26.00;;
6723;SDS011;3399;52.530;13.304;2023-02-17T05:29:57;39.30;;;28.40;;
6723;SDS011;3399;52.530;13.304;2023-02-17T05:32:23;41.33;;;27.00;;
6723;SDS011;3399;52.530;13.304;2023-02-17T05:34:48;39.80;;;28.17;;
6723;SDS011;3399;52.530;13.304;2023-02-17T05:37:14;39.53;;;27.47;;
6723;SDS011;3399;52.530;13.304;2023-02-17T05:39:39;45.27;;;29.47;;
6723;SDS011;3399;52.530;13.304;2023-02-17T05:42:05;34.40;;;25.67;;
6723;SDS011;3399;52.530;13.304;2023-02-17T05:44:31;41.03;;;27.27;;
6723;SDS011;3399;52.530;13.304;2023-02-17T05:46:56;36.70;;;25.80;;
6723;SDS011;3399;52.530;13.304;2023-02-17T05:49:22;37.63;;;27.70;;
6723;SDS011;3399;52.530;13.304;2023-02-17T05:51:47;34.03;;;25.67;;
6723;SDS011;3399;52.530;13.304;2023-02-17T05:54:13;33.53;;;25.07;;
6723;SDS011;3399;52.530;13.304;2023-02-17T05:56:38;34.13;;;25.20;;
6723;SDS011;3399;52.530;13.304;2023-02-17T05:59:04;28.50;;;23.13;;
6723;SDS011;3399;52.530;13.304;2023-02-17T06:01:29;31.50;;;23.53;;
6723;SDS011;3399;52.530;13.304;2023-02-17T06:03:55;33.70;;;23.93;;
6723;SDS011;3399;52.530;13.304;2023-02-17T06:06:20;29.27;;;23.10;;
6723;SDS011;3399;52.530;13.304;2023-02-17T06:08:46;28.53;;;22.07;;
6723;SDS011;3399;52.530;13.304;2023-02-17T06:11:11;35.43;;;24.93;;
6723;SDS011;3399;52.530;13.304;2023-02-17T06:13:37;30.70;;;23.57;;
6723;SDS011;3399;52.530;13.304;2023-02-17T06:16:02;33.10;;;23.40;;
6723;SDS011;3399;52.530;13.304;2023-02-17T06:18:28;30.30;;;24.67;;
6723;SDS011;3399;52.530;13.304;2023-02-17T06:20:54;35.60;;;23.77;;
6723;SDS011;3399;52.530;13.304;2023-02-17T06:23:21;29.63;;;22.73;;
6723;SDS011;3399;52.530;13.304;2023-02-17T06:25:47;27.57;;;21.57;;
6723;SDS011;3399;52.530;13.304;2023-02-17T06:28:12;34.80;;;25.90;;
6723;SDS011;3399;52.530;13.304;2023-02-17T06:30:38;25.20;;;19.23;;
6723;SDS011;3399;52.530;13.304;2023-02-17T06:33:03;29.50;;;21.67;;
6723;SDS011;3399;52.530;13.304;2023-02-17T06:35:29;26.10;;;20.57;;
6723;SDS011;3399;52.530;13.304;2023-02-17T06:37:54;31.53;;;22.13;;
6723;SDS011;3399;52.530;13.304;2023-02-17T06:40:20;25.40;;;20.10;;
6723;SDS011;3399;52.530;13.304;2023-02-17T06:42:45;30.03;;;21.43;;
6723;SDS011;3399;52.530;13.304;2023-02-17T06:45:11;25.70;;;19.43;;
6723;SDS011;3399;52.530;13.304;2023-02-17T06:47:36;29.03;;;20.47;;
6723;SDS011;3399;52.530;13.304;2023-02-17T06:50:03;23.20;;;18.77;;
6723;SDS011;3399;52.530;13.304;2023-02-17T06:52:29;21.90;;;17.57;;
6723;SDS011;3399;52.530;13.304;2023-02-17T06:54:54;25.70;;;18.33;;
6723;SDS011;3399;52.530;13.304;2023-02-17T06:57:19;26.00;;;19.03;;
6723;SDS011;3399;52.530;13.304;2023-02-17T06:59:45;27.80;;;19.23;;
6723;SDS011;3399;52.530;13.304;2023-02-17T07:02:11;27.70;;;18.60;;
6723;SDS011;3399;52.530;13.304;2023-02-17T07:04:40;21.43;;;17.53;;
6723;SDS011;3399;52.530;13.304;2023-02-17T07:07:06;21.93;;;17.77;;
6723;SDS011;3399;52.530;13.304;2023-02-17T07:09:32;20.27;;;16.77;;
6723;SDS011;3399;52.530;13.304;2023-02-17T07:11:58;23.43;;;18.80;;
6723;SDS011;3399;52.530;13.304;2023-02-17T07:14:24;24.13;;;18.50;;
6723;SDS011;3399;52.530;13.304;2023-02-17T07:16:50;23.57;;;17.03;;
6723;SDS011;3399;52.530;13.304;2023-02-17T07:19:16;23.50;;;18.53;;
6723;SDS011;3399;52.530;13.304;2023-02-17T07:21:41;22.10;;;18.33;;
6723;SDS011;3399;52.530;13.304;2023-02-17T07:24:07;23.00;;;18.07;;
6723;SDS011;3399;52.530;13.304;2023-02-17T07:26:34;20.00;;;15.13;;
6723;SDS011;3399;52.530;13.304;2023-02-17T07:29:01;21.93;;;17.53;;
6723;SDS011;3399;52.530;13.304;2023-02-17T07:31:28;21.87;;;16.53;;
6723;SDS011;3399;52.530;13.304;2023-02-17T07:33:53;20.63;;;13.93;;
6723;SDS011;3399;52.530;13.304;2023-02-17T07:36:19;18.20;;;15.27;;
6723;SDS011;3399;52.530;13.304;2023-02-17T07:38:45;19.87;;;15.73;;
6723;SDS011;3399;52.530;13.304;2023-02-17T07:41:17;17.60;;;15.23;;
6723;SDS011;3399;52.530;13.304;2023-02-17T07:43:45;18.20;;;15.43;;
6723;SDS011;3399;52.530;13.304;2023-02-17T07:46:11;20.03;;;14.30;;
6723;SDS011;3399;52.530;13.304;2023-02-17T07:48:37;16.87;;;14.27;;
6723;SDS011;3399;52.530;13.304;2023-02-17T07:51:04;13.67;;;12.27;;
6723;SDS011;3399;52.530;13.304;2023-02-17T07:53:31;17.57;;;14.53;;
6723;SDS011;3399;52.530;13.304;2023-02-17T07:55:57;15.57;;;13.60;;
6723;SDS011;3399;52.530;13.304;2023-02-17T07:58:22;14.37;;;12.87;;
6723;SDS011;3399;52.530;13.304;2023-02-17T08:00:48;16.80;;;14.97;;
6723;SDS011;3399;52.530;13.304;2023-02-17T08:03:13;15.57;;;13.33;;
6723;SDS011;3399;52.530;13.304;2023-02-17T08:05:39;16.83;;;15.00;;
6723;SDS011;3399;52.530;13.304;2023-02-17T08:08:05;16.97;;;13.90;;
6723;SDS011;3399;52.530;13.304;2023-02-17T08:10:50;18.20;;;13.93;;
6723;SDS011;3399;52.530;13.304;2023-02-17T08:13:34;16.40;;;13.10;;
6723;SDS011;3399;52.530;13.304;2023-02-17T08:16:00;16.90;;;13.77;;
6723;SDS011;3399;52.530;13.304;2023-02-17T08:18:25;16.43;;;13.97;;
6723;SDS011;3399;52.530;13.304;2023-02-17T08:20:51;18.00;;;13.93;;
6723;SDS011;3399;52.530;13.304;2023-02-17T08:23:18;18.97;;;12.90;;
6723;SDS011;3399;52.530;13.304;2023-02-17T08:25:44;18.53;;;14.57;;
6723;SDS011;3399;52.530;13.304;2023-02-17T08:28:10;16.10;;;14.40;;
6723;SDS011;3399;52.530;13.304;2023-02-17T08:30:36;17.37;;;15.57;;
6723;SDS011;3399;52.530;13.304;2023-02-17T08:33:03;17.93;;;15.50;;
6723;SDS011;3399;52.530;13.304;2023-02-17T08:35:29;17.90;;;15.33;;
6723;SDS011;3399;52.530;13.304;2023-02-17T08:37:54;19.90;;;15.90;;
6723;SDS011;3399;52.530;13.304;2023-02-17T08:40:20;17.87;;;15.93;;
6723;SDS011;3399;52.530;13.304;2023-02-17T08:42:45;22.87;;;16.37;;
6723;SDS011;3399;52.530;13.304;2023-02-17T08:45:12;18.30;;;15.37;;
6723;SDS011;3399;52.530;13.304;2023-02-17T08:47:38;20.13;;;16.87;;
6723;SDS011;3399;52.530;13.304;2023-02-17T08:50:04;20.63;;;16.53;;
6723;SDS011;3399;52.530;13.304;2023-02-17T08:52:32;21.07;;;17.17;;
6723;SDS011;3399;52.530;13.304;2023-02-17T08:54:58;21.87;;;19.00;;
6723;SDS011;3399;52.530;13.304;2023-02-17T08:57:24;23.23;;;18.43;;
6723;SDS011;3399;52.530;13.304;2023-02-17T08:59:50;21.47;;;15.83;;
6723;SDS011;3399;52.530;13.304;2023-02-17T09:02:16;25.57;;;19.73;;
6723;SDS011;3399;52.530;13.304;2023-02-17T09:04:42;21.27;;;17.37;;
6723;SDS011;3399;52.530;13.304;2023-02-17T09:07:08;24.77;;;19.33;;
6723;SDS011;3399;52.530;13.304;2023-02-17T09:09:36;21.63;;;17.87;;
6723;SDS011;3399;52.530;13.304;2023-02-17T09:12:02;22.17;;;17.43;;
6723;SDS011;3399;52.530;13.304;2023-02-17T09:14:28;24.30;;;17.57;;
6723;SDS011;3399;52.530;13.304;2023-02-17T09:16:53;23.77;;;18.50;;
6723;SDS011;3399;52.530;13.304;2023-02-17T09:19:20;23.73;;;17.30;;
6723;SDS011;3399;52.530;13.304;2023-02-17T09:21:46;24.87;;;18.40;;
6723;SDS011;3399;52.530;13.304;2023-02-17T09:24:12;24.23;;;19.17;;
6723;SDS011;3399;52.530;13.304;2023-02-17T09:26:38;21.97;;;18.83;;
6723;SDS011;3399;52.530;13.304;2023-02-17T09:29:04;23.83;;;17.67;;
6723;SDS011;3399;52.530;13.304;2023-02-17T09:31:30;24.20;;;18.97;;
6723;SDS011;3399;52.530;13.304;2023-02-17T09:33:57;25.00;;;18.33;;
6723;SDS011;3399;52.530;13.304;2023-02-17T09:36:24;26.30;;;19.00;;
6723;SDS011;3399;52.530;13.304;2023-02-17T09:38:51;23.03;;;18.27;;
6723;SDS011;3399;52.530;13.304;2023-02-17T09:41:22;23.43;;;18.03;;
6723;SDS011;3399;52.530;13.304;2023-02-17T09:43:50;27.97;;;18.63;;
6723;SDS011;3399;52.530;13.304;2023-02-17T09:46:25;25.80;;;19.67;;
6723;SDS011;3399;52.530;13.304;2023-02-17T09:48:58;24.73;;;18.70;;
6723;SDS011;3399;52.530;13.304;2023-02-17T09:51:34;25.57;;;19.87;;
6723;SDS011;3399;52.530;13.304;2023-02-17T09:54:17;23.00;;;19.60;;
6723;SDS011;3399;52.530;13.304;2023-02-17T09:56:51;24.83;;;19.03;;
6723;SDS011;3399;52.530;13.304;2023-02-17T09:59:19;30.37;;;20.73;;
6723;SDS011;3399;52.530;13.304;2023-02-17T10:01:53;27.60;;;20.23;;
6723;SDS011;3399;52.530;13.304;2023-02-17T10:04:29;27.83;;;20.77;;
6723;SDS011;3399;52.530;13.304;2023-02-17T10:07:20;24.33;;;21.07;;
6723;SDS011;3399;52.530;13.304;2023-02-17T10:10:01;26.07;;;21.27;;
6723;SDS011;3399;52.530;13.304;2023-02-17T10:12:33;23.70;;;20.33;;
6723;SDS011;3399;52.530;13.304;2023-02-17T10:15:06;24.20;;;20.27;;
6723;SDS011;3399;52.530;13.304;2023-02-17T10:17:58;24.33;;;20.57;;
6723;SDS011;3399;52.530;13.304;2023-02-17T10:20:41;27.40;;;21.70;;
6723;SDS011;3399;52.530;13.304;2023-02-17T10:23:19;28.33;;;20.77;;
6723;SDS011;3399;52.530;13.304;2023-02-17T10:31:24;25.37;;;21.40;;
6723;SDS011;3399;52.530;13.304;2023-02-17T10:34:01;26.43;;;21.47;;
6723;SDS011;3399;52.530;13.304;2023-02-17T10:36:42;31.57;;;23.37;;
6723;SDS011;3399;52.530;13.304;2023-02-17T10:39:31;24.20;;;19.83;;
6723;SDS011;3399;52.530;13.304;2023-02-17T10:42:20;21.47;;;18.97;;
6723;SDS011;3399;52.530;13.304;2023-02-17T10:44:49;23.20;;;19.77;;
6723;SDS011;3399;52.530;13.304;2023-02-17T10:47:18;24.07;;;19.07;;
6723;SDS011;3399;52.530;13.304;2023-02-17T10:49:46;21.77;;;17.77;;
6723;SDS011;3399;52.530;13.304;2023-02-17T10:52:18;23.00;;;18.77;;
6723;SDS011;3399;52.530;13.304;2023-02-17T10:57:18;23.13;;;18.53;;
6723;SDS011;3399;52.530;13.304;2023-02-17T10:59:46;23.43;;;19.57;;
6723;SDS011;3399;52.530;13.304;2023-02-17T11:02:24;23.40;;;19.43;;
6723;SDS011;3399;52.530;13.304;2023-02-17T11:04:58;20.73;;;17.50;;
6723;SDS011;3399;52.530;13.304;2023-02-17T11:10:18;22.30;;;18.10;;
6723;SDS011;3399;52.530;13.304;2023-02-17T11:12:46;21.07;;;17.17;;
6723;SDS011;3399;52.530;13.304;2023-02-17T11:15:14;23.93;;;18.63;;
6723;SDS011;3399;52.530;13.304;2023-02-17T11:17:42;21.57;;;17.77;;
6723;SDS011;3399;52.530;13.304;2023-02-17T11:22:38;23.30;;;17.97;;
6723;SDS011;3399;52.530;13.304;2023-02-17T11:27:52;26.63;;;18.07;;
6723;SDS011;3399;52.530;13.304;2023-02-17T11:30:20;18.57;;;16.57;;
6723;SDS011;3399;52.530;13.304;2023-02-17T11:32:47;21.10;;;16.93;;
6723;SDS011;3399;52.530;13.304;2023-02-17T11:38:01;16.97;;;15.17;;
6723;SDS011;3399;52.530;13.304;2023-02-17T11:40:34;18.13;;;16.23;;
6723;SDS011;3399;52.530;13.304;2023-02-17T11:43:00;19.07;;;15.27;;
6723;SDS011;3399;52.530;13.304;2023-02-17T11:45:30;18.53;;;15.40;;
6723;SDS011;3399;52.530;13.304;2023-02-17T11:48:04;18.07;;;14.67;;
6723;SDS011;3399;52.530;13.304;2023-02-17T11:50:52;15.53;;;13.73;;
6723;SDS011;3399;52.530;13.304;2023-02-17T11:53:47;18.67;;;13.83;;
6723;SDS011;3399;52.530;13.304;2023-02-17T11:56:22;14.23;;;12.67;;
6723;SDS011;3399;52.530;13.304;2023-02-17T12:01:51;15.00;;;12.97;;
6723;SDS011;3399;52.530;13.304;2023-02-17T12:04:41;14.50;;;13.00;;
6723;SDS011;3399;52.530;13.304;2023-02-17T12:10:22;12.07;;;10.97;;
6723;SDS011;3399;52.530;13.304;2023-02-17T12:13:14;12.10;;;10.77;;
6723;SDS011;3399;52.530;13.304;2023-02-17T12:16:20;12.47;;;11.00;;
6723;SDS011;3399;52.530;13.304;2023-02-17T12:19:00;11.10;;;9.70;;
6723;SDS011;3399;52.530;13.304;2023-02-17T12:21:58;11.30;;;10.20;;
6723;SDS011;3399;52.530;13.304;2023-02-17T12:24:45;12.63;;;11.07;;
6723;SDS011;3399;52.530;13.304;2023-02-17T12:36:07;10.30;;;8.93;;
6723;SDS011;3399;52.530;13.304;2023-02-17T12:38:40;12.73;;;10.03;;
6723;SDS011;3399;52.530;13.304;2023-02-17T12:43:40;10.40;;;9.30;;
6723;SDS011;3399;52.530;13.304;2023-02-17T12:46:11;9.07;;;8.17;;
6723;SDS011;3399;52.530;13.304;2023-02-17T12:48:44;10.70;;;8.40;;
6723;SDS011;3399;52.530;13.304;2023-02-17T12:51:29;8.27;;;6.97;;
6723;SDS011;3399;52.530;13.304;2023-02-17T12:54:02;9.97;;;8.17;;
6723;SDS011;3399;52.530;13.304;2023-02-17T12:56:36;8.90;;;7.67;;
6723;SDS011;3399;52.530;13.304;2023-02-17T12:59:25;7.43;;;6.43;;
6723;SDS011;3399;52.530;13.304;2023-02-17T13:01:59;9.27;;;7.50;;
6723;SDS011;3399;52.530;13.304;2023-02-17T13:04:31;7.97;;;6.60;;
6723;SDS011;3399;52.530;13.304;2023-02-17T13:07:07;9.27;;;6.73;;
6723;SDS011;3399;52.530;13.304;2023-02-17T13:09:57;11.07;;;7.53;;
6723;SDS011;3399;52.530;13.304;2023-02-17T13:14:55;8.13;;;6.53;;
6723;SDS011;3399;52.530;13.304;2023-02-17T13:17:33;7.40;;;6.17;;
6723;SDS011;3399;52.530;13.304;2023-02-17T13:22:48;7.07;;;6.37;;
6723;SDS011;3399;52.530;13.304;2023-02-17T13:25:31;5.63;;;5.10;;
6723;SDS011;3399;52.530;13.304;2023-02-17T13:27:58;6.23;;;5.63;;
6723;SDS011;3399;52.530;13.304;2023-02-17T13:35:45;6.73;;;5.17;;
6723;SDS011;3399;52.530;13.304;2023-02-17T13:38:11;5.87;;;4.73;;
6723;SDS011;3399;52.530;13.304;2023-02-17T13:40:38;6.70;;;6.03;;
6723;SDS011;3399;52.530;13.304;2023-02-17T13:43:15;6.83;;;4.57;;
6723;SDS011;3399;52.530;13.304;2023-02-17T13:45:56;5.87;;;5.30;;
6723;SDS011;3399;52.530;13.304;2023-02-17T13:48:24;6.37;;;5.13;;
6723;SDS011;3399;52.530;13.304;2023-02-17T13:50:53;5.67;;;5.17;;
6723;SDS011;3399;52.530;13.304;2023-02-17T13:53:22;5.77;;;5.13;;
6723;SDS011;3399;52.530;13.304;2023-02-17T13:55:51;7.43;;;6.10;;
6723;SDS011;3399;52.530;13.304;2023-02-17T13:58:22;5.93;;;5.33;;
6723;SDS011;3399;52.530;13.304;2023-02-17T14:00:49;6.60;;;6.00;;
6723;SDS011;3399;52.530;13.304;2023-02-17T14:03:24;5.87;;;5.17;;
6723;SDS011;3399;52.530;13.304;2023-02-17T14:05:55;5.87;;;5.37;;
6723;SDS011;3399;52.530;13.304;2023-02-17T14:10:54;4.80;;;4.40;;
6723;SDS011;3399;52.530;13.304;2023-02-17T14:13:20;6.07;;;5.37;;
6723;SDS011;3399;52.530;13.304;2023-02-17T14:15:51;8.20;;;5.47;;
6723;SDS011;3399;52.530;13.304;2023-02-17T14:18:27;5.80;;;5.00;;
6723;SDS011;3399;52.530;13.304;2023-02-17T14:20:58;4.90;;;4.40;;
6723;SDS011;3399;52.530;13.304;2023-02-17T14:23:25;4.87;;;4.37;;
6723;SDS011;3399;52.530;13.304;2023-02-17T14:25:51;6.10;;;5.07;;
6723;SDS011;3399;52.530;13.304;2023-02-17T14:28:21;4.57;;;4.23;;
6723;SDS011;3399;52.530;13.304;2023-02-17T14:30:48;6.67;;;4.80;;
6723;SDS011;3399;52.530;13.304;2023-02-17T14:38:35;7.17;;;5.87;;
6723;SDS011;3399;52.530;13.304;2023-02-17T14:41:04;5.83;;;5.17;;
6723;SDS011;3399;52.530;13.304;2023-02-17T14:43:30;6.77;;;6.07;;
6723;SDS011;3399;52.530;13.304;2023-02-17T14:45:56;5.43;;;4.53;;
6723;SDS011;3399;52.530;13.304;2023-02-17T14:48:22;7.77;;;7.07;;
6723;SDS011;3399;52.530;13.304;2023-02-17T14:50:49;8.43;;;7.53;;
6723;SDS011;3399;52.530;13.304;2023-02-17T14:53:33;9.77;;;8.77;;
6723;SDS011;3399;52.530;13.304;2023-02-17T14:58:40;9.03;;;7.93;;
6723;SDS011;3399;52.530;13.304;2023-02-17T15:01:08;9.43;;;8.60;;
6723;SDS011;3399;52.530;13.304;2023-02-17T15:03:36;9.83;;;8.83;;
6723;SDS011;3399;52.530;13.304;2023-02-17T15:06:01;9.33;;;8.50;;
6723;SDS011;3399;52.530;13.304;2023-02-17T15:08:33;11.47;;;10.27;;
6723;SDS011;3399;52.530;13.304;2023-02-17T15:11:00;11.97;;;9.87;;
6723;SDS011;3399;52.530;13.304;2023-02-17T15:13:26;11.20;;;10.10;;
6723;SDS011;3399;52.530;13.304;2023-02-17T15:15:51;12.90;;;10.60;;
6723;SDS011;3399;52.530;13.304;2023-02-17T15:18:17;12.10;;;10.83;;
6723;SDS011;3399;52.530;13.304;2023-02-17T15:20:44;15.50;;;11.17;;
6723;SDS011;3399;52.530;13.304;2023-02-17T15:23:21;16.93;;;11.73;;
6723;SDS011;3399;52.530;13.304;2023-02-17T15:25:49;11.67;;;10.57;;
6723;SDS011;3399;52.530;13.304;2023-02-17T15:28:16;13.50;;;12.07;;
6723;SDS011;3399;52.530;13.304;2023-02-17T15:30:45;13.33;;;11.90;;
6723;SDS011;3399;52.530;13.304;2023-02-17T15:33:16;12.13;;;10.90;;
6723;SDS011;3399;52.530;13.304;2023-02-17T15:35:43;15.00;;;13.00;;
6723;SDS011;3399;52.530;13.304;2023-02-17T15:38:11;13.30;;;10.93;;
6723;SDS011;3399;52.530;13.304;2023-02-17T15:40:37;16.73;;;13.20;;
6723;SDS011;3399;52.530;13.304;2023-02-17T15:43:04;15.23;;;13.13;;
6723;SDS011;3399;52.530;13.304;2023-02-17T15:45:30;16.33;;;12.90;;
6723;SDS011;3399;52.530;13.304;2023-02-17T15:48:02;13.23;;;11.67;;
6723;SDS011;3399;52.530;13.304;2023-02-17T15:50:35;13.53;;;11.40;;
6723;SDS011;3399;52.530;13.304;2023-02-17T15:53:01;16.07;;;11.43;;
6723;SDS011;3399;52.530;13.304;2023-02-17T15:55:26;13.33;;;11.67;;
6723;SDS011;3399;52.530;13.304;2023-02-17T15:57:53;12.83;;;11.47;;
6723;SDS011;3399;52.530;13.304;2023-02-17T16:02:52;11.07;;;9.80;;
6723;SDS011;3399;52.530;13.304;2023-02-17T16:05:18;13.20;;;11.00;;